Terminal Aerodrome Forecast
Issued by NWS King Salmon, AK

Home | Current Version | Previous Version | Text Only | Print | Product List | Glossary On
Versions: 1 2 3 4 5 6 7 8 9 10 11 12 13 14 15
000
FTAK31 PANC 300537
TAFAKN
TAF
PAKN 300537Z 3006/3106 24010KT P6SM SCT020 OVC035
     FM301000 22007KT 6SM BR SCT010 OVC020
     FM301800 20012G20KT P6SM VCSH BKN035=

USA.gov is the U.S. government's official web portal to all federal, state and local government web resources and services.